Time;durP1;ratioP1;P1;durP2;ratioP2;P2;SDS_P1;SDS_P2;PMS_P1;PMS_P2;Temp;Humidity;BMP_temperature;BMP_pressure;BME280_temperature;BME280_humidity;BME280_pressure;Samples;Min_cycle;Max_cycle;Signal;HPM_P1;HPM_P2
2023/03/09 00:00:52;;;;;;;23.17;14.67;;;2.50;99.90;;;;;;5053415;28;20231;-67
2023/03/09 00:03:40;;;;;;;22.17;13.93;;;2.70;99.90;;;;;;5059493;28;20324;-66
2023/03/09 00:06:30;;;;;;;20.40;12.97;;;2.60;99.90;;;;;;5059893;28;20226;-67
2023/03/09 00:09:20;;;;;;;21.50;13.43;;;2.50;99.90;;;;;;5059878;28;20234;-65
2023/03/09 00:12:11;;;;;;;21.77;13.17;;;2.60;99.90;;;;;;5058758;28;20936;-66
2023/03/09 00:14:59;;;;;;;20.67;12.47;;;2.30;99.90;;;;;;5047298;28;20311;-66
2023/03/09 00:17:52;;;;;;;21.33;14.10;;;2.30;99.90;;;;;;5061978;28;20235;-66
2023/03/09 00:20:40;;;;;;;21.40;13.47;;;2.30;99.90;;;;;;5043089;28;20223;-65
2023/03/09 00:23:29;;;;;;;21.50;14.53;;;2.20;99.90;;;;;;5058859;28;20254;-66
2023/03/09 00:26:18;;;;;;;21.33;13.97;;;2.30;99.90;;;;;;5054267;28;20236;-64
2023/03/09 00:29:10;;;;;;;22.77;13.63;;;2.40;99.90;;;;;;5058135;28;20226;-67
2023/03/09 00:31:59;;;;;;;23.80;14.30;;;2.40;99.90;;;;;;5047139;28;20230;-67
2023/03/09 00:34:48;;;;;;;22.47;14.23;;;2.10;99.90;;;;;;5060455;28;20229;-67
2023/03/09 00:37:38;;;;;;;22.43;13.77;;;2.20;99.90;;;;;;5053778;28;20242;-67
2023/03/09 00:40:29;;;;;;;23.97;14.40;;;2.10;99.90;;;;;;5039688;28;20700;-67
2023/03/09 00:43:18;;;;;;;21.40;14.47;;;2.30;99.90;;;;;;5057426;28;20316;-66
2023/03/09 00:46:08;;;;;;;23.80;14.93;;;2.20;99.90;;;;;;5046088;28;20294;-66
2023/03/09 00:48:58;;;;;;;22.30;14.80;;;2.10;99.90;;;;;;5067302;28;20373;-66
2023/03/09 00:51:46;;;;;;;22.33;13.70;;;2.20;99.90;;;;;;5045433;28;20250;-67
2023/03/09 00:54:35;;;;;;;18.57;13.27;;;2.10;99.90;;;;;;5054132;28;20761;-67
2023/03/09 00:57:24;;;;;;;23.33;14.37;;;2.10;99.90;;;;;;5061475;28;20725;-66
2023/03/09 01:00:18;;;;;;;22.87;13.87;;;2.00;99.90;;;;;;5046380;28;20219;-67
2023/03/09 01:03:08;;;;;;;22.03;13.50;;;2.10;99.90;;;;;;5048484;28;20256;-67
2023/03/09 01:06:00;;;;;;;19.67;13.97;;;2.10;99.90;;;;;;5058934;28;20234;-67
2023/03/09 01:08:49;;;;;;;20.57;13.53;;;2.10;99.90;;;;;;5044515;28;20587;-67
2023/03/09 01:11:38;;;;;;;21.30;13.83;;;2.30;99.90;;;;;;5062629;28;20224;-66
2023/03/09 01:14:27;;;;;;;19.97;13.97;;;2.20;99.90;;;;;;5053669;28;20263;-67
2023/03/09 01:17:15;;;;;;;20.73;14.03;;;2.20;99.90;;;;;;5050284;28;20227;-66
2023/03/09 01:20:08;;;;;;;20.60;13.33;;;2.40;99.90;;;;;;5045753;28;20237;-66
2023/03/09 01:22:58;;;;;;;21.10;14.77;;;2.10;99.90;;;;;;5057533;28;20222;-68
2023/03/09 01:25:47;;;;;;;22.27;13.67;;;2.20;99.90;;;;;;5063428;28;20316;-68
2023/03/09 01:28:36;;;;;;;21.50;14.73;;;2.10;99.90;;;;;;5061884;28;20222;-67
2023/03/09 01:31:25;;;;;;;22.80;13.83;;;2.10;99.90;;;;;;5058995;28;20219;-65
2023/03/09 01:34:14;;;;;;;25.07;14.87;;;2.10;99.90;;;;;;5056835;28;20234;-65
2023/03/09 01:37:08;;;;;;;24.93;14.73;;;2.10;99.90;;;;;;5057843;28;20223;-66
2023/03/09 01:39:57;;;;;;;23.33;14.70;;;2.10;99.90;;;;;;5055591;28;20317;-67
2023/03/09 01:42:57;;;;;;;22.43;13.97;;;2.10;99.90;;;;;;5041834;28;20336;-68
2023/03/09 01:46:25;;;;;;;22.40;13.83;;;2.00;99.90;;;;;;5046022;28;20222;-67
2023/03/09 01:49:29;;;;;;;25.00;14.77;;;1.90;99.90;;;;;;5049004;28;20885;-68
2023/03/09 01:52:22;;;;;;;21.50;14.10;;;1.90;99.90;;;;;;5061808;28;20752;-66
2023/03/09 01:55:14;;;;;;;19.90;13.30;;;1.90;99.90;;;;;;5046277;28;20295;-67
2023/03/09 01:58:07;;;;;;;21.40;13.53;;;1.90;99.90;;;;;;5054354;28;20273;-66
2023/03/09 02:00:57;;;;;;;22.93;14.57;;;1.90;99.90;;;;;;5046057;28;20227;-65
2023/03/09 02:03:53;;;;;;;22.47;13.87;;;2.10;99.90;;;;;;5050964;28;20222;-66
2023/03/09 02:06:43;;;;;;;23.23;14.00;;;2.10;99.90;;;;;;5056235;28;20224;-64
2023/03/09 02:09:39;;;;;;;22.43;14.13;;;2.00;99.90;;;;;;5035134;28;20233;-64
2023/03/09 02:12:30;;;;;;;21.73;14.47;;;2.10;99.90;;;;;;5042596;28;20233;-65
2023/03/09 02:15:19;;;;;;;22.43;14.43;;;2.10;99.90;;;;;;5027791;28;20317;-65
2023/03/09 02:18:12;;;;;;;23.43;14.87;;;1.90;99.90;;;;;;5054725;28;20236;-65
2023/03/09 02:21:09;;;;;;;21.33;14.50;;;2.10;99.90;;;;;;5062515;28;20238;-64
2023/03/09 02:24:06;;;;;;;23.50;14.77;;;2.00;99.90;;;;;;5043019;28;20248;-67
2023/03/09 02:27:00;;;;;;;23.03;15.00;;;2.10;99.90;;;;;;5042460;28;20749;-64
2023/03/09 02:29:51;;;;;;;26.60;15.23;;;1.90;99.90;;;;;;5048950;28;20987;-66
2023/03/09 02:32:41;;;;;;;24.30;15.67;;;2.00;99.90;;;;;;5047254;28;20223;-66
2023/03/09 02:35:32;;;;;;;24.73;15.23;;;2.10;99.90;;;;;;5055705;28;20227;-66
2023/03/09 02:38:21;;;;;;;25.40;15.80;;;2.10;99.90;;;;;;5057771;28;20717;-67
2023/03/09 02:41:13;;;;;;;22.80;15.53;;;2.10;99.90;;;;;;5046933;28;20231;-67
2023/03/09 02:44:02;;;;;;;24.17;16.00;;;2.20;99.90;;;;;;5043715;28;20276;-66
2023/03/09 02:46:55;;;;;;;24.83;15.80;;;2.10;99.90;;;;;;5042283;28;20223;-67
2023/03/09 02:49:44;;;;;;;26.37;15.87;;;2.10;99.90;;;;;;5036841;28;20237;-67
2023/03/09 02:52:32;;;;;;;22.23;15.73;;;2.30;99.90;;;;;;5051920;28;20740;-67
2023/03/09 02:55:22;;;;;;;24.27;16.27;;;2.20;99.90;;;;;;5058941;28;20221;-66
2023/03/09 02:58:12;;;;;;;25.73;16.17;;;2.00;99.90;;;;;;5039995;28;20231;-67
2023/03/09 03:01:01;;;;;;;24.27;16.73;;;2.00;99.90;;;;;;5039776;28;20227;-65
2023/03/09 03:03:52;;;;;;;27.43;18.40;;;2.20;99.90;;;;;;5034287;28;20246;-66
2023/03/09 03:06:41;;;;;;;24.83;16.10;;;2.00;99.90;;;;;;5056362;28;20216;-65
2023/03/09 03:09:31;;;;;;;27.90;17.80;;;2.00;99.90;;;;;;5045060;28;20352;-66
2023/03/09 03:12:20;;;;;;;24.33;16.60;;;2.00;99.90;;;;;;5054677;28;20317;-66
2023/03/09 03:15:11;;;;;;;25.37;16.73;;;2.00;99.90;;;;;;5040762;28;20856;-66
2023/03/09 03:18:00;;;;;;;24.97;16.30;;;2.10;99.90;;;;;;5056321;28;20254;-66
2023/03/09 03:20:51;;;;;;;21.97;14.70;;;1.80;99.90;;;;;;5055292;28;20233;-66
2023/03/09 03:23:40;;;;;;;24.37;16.03;;;1.80;99.90;;;;;;5060200;28;20310;-66
2023/03/09 03:26:29;;;;;;;23.00;16.30;;;2.00;99.90;;;;;;5054697;28;20242;-68
2023/03/09 03:29:23;;;;;;;25.87;15.43;;;1.90;99.90;;;;;;5058378;28;20220;-67
2023/03/09 03:32:14;;;;;;;24.10;14.90;;;2.10;99.90;;;;;;5043296;28;20229;-67
2023/03/09 03:35:03;;;;;;;21.77;14.13;;;2.10;99.90;;;;;;5056988;28;20229;-67
2023/03/09 03:37:54;;;;;;;22.33;15.17;;;1.90;99.90;;;;;;5060473;28;20248;-67
2023/03/09 03:40:45;;;;;;;22.27;15.87;;;1.90;99.90;;;;;;5063624;28;20259;-68
2023/03/09 03:43:34;;;;;;;21.93;14.53;;;2.00;99.90;;;;;;5046400;28;20218;-67
2023/03/09 03:46:23;;;;;;;21.37;14.70;;;2.00;99.90;;;;;;5058630;28;20708;-68
2023/03/09 03:49:12;;;;;;;23.77;14.97;;;1.80;99.90;;;;;;5037410;28;20229;-68
2023/03/09 03:52:02;;;;;;;20.13;14.50;;;1.70;99.90;;;;;;5054231;28;20690;-66
2023/03/09 03:54:52;;;;;;;22.80;15.27;;;1.90;99.90;;;;;;5062238;28;20223;-65
2023/03/09 03:57:41;;;;;;;23.37;15.10;;;1.80;99.90;;;;;;5044087;28;20233;-66
2023/03/09 04:00:32;;;;;;;20.30;14.03;;;2.00;99.90;;;;;;5024670;28;21064;-67
2023/03/09 04:03:25;;;;;;;19.93;13.70;;;2.00;99.90;;;;;;5057097;28;20642;-66
2023/03/09 04:06:14;;;;;;;21.97;13.93;;;1.90;99.90;;;;;;5056523;28;20306;-67
2023/03/09 04:09:05;;;;;;;19.87;13.90;;;2.00;99.90;;;;;;5057460;28;20698;-67
2023/03/09 04:11:57;;;;;;;19.37;12.70;;;2.00;99.90;;;;;;5058319;28;20315;-68
2023/03/09 04:14:46;;;;;;;19.43;13.10;;;2.00;99.90;;;;;;5047015;28;20226;-67
2023/03/09 04:17:35;;;;;;;18.87;12.37;;;2.10;99.90;;;;;;5058809;28;20249;-68
2023/03/09 04:20:24;;;;;;;18.13;11.90;;;2.00;99.90;;;;;;5053284;28;20266;-68
2023/03/09 04:23:13;;;;;;;16.57;11.83;;;1.90;99.90;;;;;;5042924;28;20215;-67
2023/03/09 04:26:07;;;;;;;16.87;11.57;;;1.90;99.90;;;;;;5066268;28;20604;-67
2023/03/09 04:29:36;;;;;;;17.47;11.13;;;1.90;99.90;;;;;;4978994;28;20767;-67
2023/03/09 04:32:25;;;;;;;17.03;10.67;;;1.90;99.90;;;;;;4995401;28;20303;-68
2023/03/09 04:35:21;;;;;;;16.47;10.20;;;1.90;99.90;;;;;;5046397;28;20325;-66
2023/03/09 04:38:11;;;;;;;13.87;9.93;;;1.90;99.90;;;;;;5057890;28;20710;-65
2023/03/09 04:41:03;;;;;;;15.37;10.10;;;1.90;99.90;;;;;;5048398;28;20693;-67
2023/03/09 04:43:52;;;;;;;16.40;10.20;;;1.90;99.90;;;;;;5045723;28;20333;-64
2023/03/09 04:46:42;;;;;;;13.27;10.00;;;1.80;99.90;;;;;;5043516;28;20228;-65
2023/03/09 04:49:34;;;;;;;13.43;9.70;;;1.80;99.90;;;;;;5043148;28;20224;-63
2023/03/09 04:52:23;;;;;;;15.43;10.10;;;1.80;99.90;;;;;;5054123;28;20293;-65
2023/03/09 04:55:15;;;;;;;14.70;9.67;;;1.90;99.90;;;;;;5063823;28;20242;-65
2023/03/09 04:58:05;;;;;;;13.63;9.30;;;1.80;99.90;;;;;;5062448;28;20242;-65
2023/03/09 05:00:54;;;;;;;14.07;9.10;;;1.70;99.90;;;;;;5064758;28;20219;-67
2023/03/09 05:03:46;;;;;;;18.60;10.07;;;1.90;99.90;;;;;;5044346;28;20697;-67
2023/03/09 05:06:34;;;;;;;17.13;9.23;;;1.70;99.90;;;;;;5057477;28;20219;-61
2023/03/09 05:09:24;;;;;;;14.97;9.37;;;1.70;99.90;;;;;;5056949;28;20225;-64
2023/03/09 05:12:13;;;;;;;14.53;9.90;;;1.60;99.90;;;;;;5053794;28;20310;-67
2023/03/09 05:15:04;;;;;;;16.17;10.30;;;1.50;99.90;;;;;;5046706;28;20261;-65
2023/03/09 05:17:55;;;;;;;15.07;10.30;;;1.50;99.90;;;;;;5044157;28;20275;-65
2023/03/09 05:20:47;;;;;;;17.03;10.03;;;1.60;99.90;;;;;;5058125;28;20216;-66
2023/03/09 05:23:36;;;;;;;16.57;11.07;;;1.60;99.90;;;;;;5063367;28;20221;-65
2023/03/09 05:26:27;;;;;;;15.13;10.37;;;1.60;99.90;;;;;;5060955;28;20213;-66
2023/03/09 05:29:17;;;;;;;14.77;10.27;;;1.80;99.90;;;;;;5043169;28;20412;-66
2023/03/09 05:32:07;;;;;;;15.17;10.37;;;1.80;99.90;;;;;;5046002;28;20721;-65
2023/03/09 05:34:57;;;;;;;17.20;11.63;;;1.70;99.90;;;;;;5043128;28;20243;-67
2023/03/09 05:37:48;;;;;;;19.20;11.60;;;1.70;99.90;;;;;;5056701;28;20224;-67
2023/03/09 05:40:40;;;;;;;17.80;11.43;;;1.70;99.90;;;;;;5047659;28;20216;-67
2023/03/09 05:43:32;;;;;;;17.67;12.53;;;1.70;99.90;;;;;;5055316;28;20904;-66
2023/03/09 05:46:23;;;;;;;18.20;12.43;;;1.80;99.90;;;;;;5047642;28;20696;-67
2023/03/09 05:49:12;;;;;;;19.43;12.90;;;1.80;99.90;;;;;;5046347;28;20345;-68
2023/03/09 05:52:03;;;;;;;18.60;12.53;;;1.80;99.90;;;;;;5059085;28;20707;-69
2023/03/09 05:54:56;;;;;;;20.70;14.07;;;1.60;99.90;;;;;;5042042;28;20234;-67
2023/03/09 05:57:45;;;;;;;19.93;13.63;;;1.60;99.90;;;;;;5044005;28;20747;-67
2023/03/09 06:00:35;;;;;;;21.90;14.17;;;1.70;99.90;;;;;;5054718;28;20334;-68
2023/03/09 06:03:27;;;;;;;25.23;14.33;;;1.70;99.90;;;;;;5053905;28;20222;-67
2023/03/09 06:06:19;;;;;;;25.93;14.83;;;1.50;99.90;;;;;;5041494;28;20234;-67
2023/03/09 06:09:08;;;;;;;21.83;14.67;;;1.50;99.90;;;;;;5041182;28;20363;-67
2023/03/09 06:11:59;;;;;;;23.63;15.63;;;1.60;99.90;;;;;;5057527;28;20540;-66
2023/03/09 06:14:48;;;;;;;21.40;14.40;;;1.70;99.90;;;;;;5043288;28;20312;-66
2023/03/09 06:17:38;;;;;;;24.27;14.83;;;1.50;99.90;;;;;;5055974;28;20250;-67
2023/03/09 06:20:30;;;;;;;22.13;13.17;;;1.60;99.90;;;;;;5046131;28;20385;-68
2023/03/09 06:23:21;;;;;;;21.53;14.17;;;1.60;99.90;;;;;;5062028;28;20314;-67
2023/03/09 06:26:12;;;;;;;20.70;14.00;;;1.50;99.90;;;;;;5041299;28;20240;-67
2023/03/09 06:29:10;;;;;;;22.70;13.50;;;1.60;99.90;;;;;;5054935;28;20969;-67
2023/03/09 06:32:03;;;;;;;19.27;13.37;;;1.50;99.90;;;;;;5044727;28;20229;-64
2023/03/09 06:34:55;;;;;;;22.07;13.73;;;1.50;99.90;;;;;;5042754;28;20270;-65
2023/03/09 06:37:44;;;;;;;22.70;13.87;;;1.60;99.90;;;;;;5043733;28;20224;-65
2023/03/09 06:40:34;;;;;;;19.97;12.63;;;1.60;99.90;;;;;;5042925;28;20264;-65
2023/03/09 06:43:23;;;;;;;21.53;14.00;;;1.30;99.90;;;;;;5045826;28;20220;-66
2023/03/09 06:46:15;;;;;;;22.63;13.63;;;1.50;99.90;;;;;;5036633;28;20233;-69
2023/03/09 06:49:04;;;;;;;23.67;13.97;;;1.50;99.90;;;;;;5057646;28;20230;-66
2023/03/09 06:51:53;;;;;;;21.03;13.90;;;1.60;99.90;;;;;;5060890;28;20229;-65
2023/03/09 06:54:43;;;;;;;23.27;13.80;;;1.60;99.90;;;;;;5040314;28;20232;-65
2023/03/09 06:57:38;;;;;;;37.87;22.10;;;1.40;99.90;;;;;;5040626;28;20926;-67
2023/03/09 07:00:28;;;;;;;21.20;12.77;;;1.70;99.90;;;;;;5048553;28;20326;-65
2023/03/09 07:03:23;;;;;;;18.30;12.37;;;1.50;99.90;;;;;;5057951;28;20757;-64
2023/03/09 07:06:12;;;;;;;19.87;13.13;;;1.50;99.90;;;;;;5063351;28;20217;-66
2023/03/09 07:09:02;;;;;;;18.97;13.27;;;1.40;99.90;;;;;;5058852;28;20735;-68
2023/03/09 07:11:50;;;;;;;22.40;13.97;;;1.40;99.90;;;;;;5051484;28;20256;-66
2023/03/09 07:14:39;;;;;;;19.63;13.03;;;1.50;99.90;;;;;;5045291;28;20264;-68
2023/03/09 07:17:28;;;;;;;21.73;13.50;;;1.60;99.90;;;;;;5060317;28;20979;-66
2023/03/09 07:20:18;;;;;;;19.27;12.57;;;1.50;99.90;;;;;;5061223;28;20421;-66
2023/03/09 07:23:08;;;;;;;23.60;13.70;;;1.60;99.90;;;;;;5060761;28;20274;-67
2023/03/09 07:26:00;;;;;;;19.77;13.10;;;1.70;99.90;;;;;;5057500;28;20348;-67
2023/03/09 07:28:49;;;;;;;19.00;13.23;;;1.80;99.90;;;;;;5060533;28;20284;-64
2023/03/09 07:31:38;;;;;;;19.57;13.07;;;1.80;99.90;;;;;;5057382;28;20763;-70
2023/03/09 07:34:27;;;;;;;19.37;12.70;;;2.10;99.90;;;;;;5058412;28;20290;-66
2023/03/09 07:37:17;;;;;;;20.10;12.80;;;2.00;99.90;;;;;;5062467;28;20306;-66
2023/03/09 07:40:08;;;;;;;27.70;19.17;;;2.10;99.90;;;;;;5056944;28;20254;-67
2023/03/09 07:42:57;;;;;;;16.17;11.27;;;1.80;99.90;;;;;;5056870;28;20241;-66
2023/03/09 07:46:07;;;;;;;15.83;10.67;;;1.80;99.90;;;;;;5054305;28;20326;-69
2023/03/09 07:48:56;;;;;;;17.93;11.20;;;1.70;99.90;;;;;;5058989;28;20218;-70
2023/03/09 07:51:44;;;;;;;17.57;11.57;;;1.60;99.90;;;;;;5058264;28;20716;-66
2023/03/09 07:54:36;;;;;;;15.30;10.67;;;1.80;99.90;;;;;;5043843;28;20226;-64
2023/03/09 07:57:26;;;;;;;17.60;10.83;;;1.80;99.90;;;;;;5048148;28;20262;-67
2023/03/09 08:00:20;;;;;;;16.87;11.53;;;1.80;99.90;;;;;;5022733;28;20737;-65
2023/03/09 08:03:09;;;;;;;18.60;11.37;;;1.90;99.90;;;;;;5035604;28;20242;-66
2023/03/09 08:06:01;;;;;;;15.13;10.63;;;1.80;99.90;;;;;;5039251;28;21012;-66
2023/03/09 08:08:50;;;;;;;16.57;10.70;;;1.80;99.90;;;;;;5038932;28;20231;-65
2023/03/09 08:11:41;;;;;;;17.87;10.70;;;1.80;99.90;;;;;;5043633;28;20227;-66
2023/03/09 08:14:29;;;;;;;17.60;11.27;;;2.00;99.90;;;;;;5039599;28;20365;-65
2023/03/09 08:17:18;;;;;;;15.63;11.50;;;1.90;99.90;;;;;;5029861;28;20249;-65
2023/03/09 08:20:11;;;;;;;15.50;11.73;;;1.80;99.90;;;;;;5042811;28;20232;-65
2023/03/09 08:23:00;;;;;;;17.97;10.93;;;1.90;99.90;;;;;;5034085;28;20218;-66
2023/03/09 08:25:54;;;;;;;18.80;11.87;;;1.80;99.90;;;;;;5026580;28;20690;-66
2023/03/09 08:28:45;;;;;;;17.83;11.33;;;1.90;99.90;;;;;;5027352;28;20230;-66
2023/03/09 08:31:35;;;;;;;17.00;10.97;;;1.90;99.90;;;;;;5015815;28;20291;-65
2023/03/09 08:34:24;;;;;;;18.83;11.43;;;1.70;99.90;;;;;;5041336;28;20254;-66
2023/03/09 08:37:13;;;;;;;16.30;11.93;;;1.90;99.90;;;;;;5042800;28;20225;-65
2023/03/09 08:40:02;;;;;;;16.63;11.67;;;2.00;99.90;;;;;;5037728;28;20266;-65
2023/03/09 08:42:51;;;;;;;14.60;10.17;;;2.10;99.90;;;;;;5045191;28;20218;-64
2023/03/09 08:45:41;;;;;;;16.40;10.73;;;2.20;99.90;;;;;;5035589;28;20445;-65
2023/03/09 08:48:33;;;;;;;15.50;9.70;;;2.20;99.90;;;;;;5043282;28;20225;-65
2023/03/09 08:51:23;;;;;;;16.57;10.67;;;2.10;99.90;;;;;;5032785;28;20265;-62
2023/03/09 08:54:12;;;;;;;15.97;11.73;;;2.20;99.90;;;;;;5030946;28;20244;-63
2023/03/09 08:57:01;;;;;;;20.30;10.73;;;2.30;99.90;;;;;;5039781;28;20237;-63
2023/03/09 08:59:49;;;;;;;20.30;10.43;;;2.30;99.90;;;;;;5039156;28;20322;-65
2023/03/09 09:02:40;;;;;;;17.57;10.37;;;2.10;99.90;;;;;;5017555;28;20261;-65
2023/03/09 09:05:29;;;;;;;12.67;9.43;;;2.00;99.90;;;;;;5035871;28;20249;-65
2023/03/09 09:08:19;;;;;;;14.13;9.07;;;2.00;99.90;;;;;;5032901;28;20223;-68
2023/03/09 09:11:09;;;;;;;11.70;8.60;;;2.00;99.90;;;;;;5040482;28;20214;-65
2023/03/09 09:13:58;;;;;;;14.97;8.87;;;2.00;99.90;;;;;;5039812;28;20728;-65
2023/03/09 09:16:47;;;;;;;14.37;8.63;;;2.10;99.90;;;;;;5043212;28;20314;-65
2023/03/09 09:19:41;;;;;;;12.13;7.90;;;2.20;99.90;;;;;;5040700;28;20223;-66
2023/03/09 09:22:29;;;;;;;10.80;7.27;;;1.90;99.90;;;;;;5022182;28;20239;-65
2023/03/09 09:25:18;;;;;;;10.30;7.60;;;1.80;99.90;;;;;;5006013;28;20227;-66
2023/03/09 09:28:07;;;;;;;10.93;7.40;;;1.80;99.90;;;;;;5039167;28;20237;-66
2023/03/09 09:30:58;;;;;;;12.90;7.30;;;1.90;99.90;;;;;;5033315;28;20227;-65
2023/03/09 09:33:48;;;;;;;10.73;7.43;;;1.70;99.90;;;;;;5030753;28;20828;-66
2023/03/09 09:36:40;;;;;;;13.70;7.80;;;1.80;99.90;;;;;;5042572;28;20249;-65
2023/03/09 09:39:29;;;;;;;12.93;7.90;;;1.90;99.90;;;;;;5032245;28;21710;-61
2023/03/09 09:42:24;;;;;;;10.73;7.40;;;1.90;99.90;;;;;;5017180;28;20244;-60
2023/03/09 09:45:36;;;;;;;11.43;8.07;;;1.80;99.90;;;;;;5040108;28;20228;-61
2023/03/09 09:48:25;;;;;;;13.67;8.60;;;1.60;99.90;;;;;;5039882;28;20230;-61
2023/03/09 09:51:29;;;;;;;14.53;8.97;;;1.60;99.90;;;;;;5039266;28;20224;-61
2023/03/09 09:54:30;;;;;;;12.83;7.70;;;1.90;99.90;;;;;;5035523;28;20670;-62
2023/03/09 09:57:23;;;;;;;11.07;7.77;;;1.90;99.90;;;;;;5043929;28;20220;-61
2023/03/09 10:00:19;;;;;;;12.90;7.50;;;2.00;99.90;;;;;;5057650;28;20279;-61
2023/03/09 10:03:18;;;;;;;11.30;7.13;;;2.00;99.90;;;;;;5053329;28;20921;-61
2023/03/09 10:06:17;;;;;;;8.67;7.20;;;1.90;99.90;;;;;;5045204;28;20260;-61
2023/03/09 10:09:11;;;;;;;11.03;7.40;;;2.10;99.90;;;;;;5053217;28;20225;-61
2023/03/09 10:12:06;;;;;;;12.63;7.73;;;2.10;99.90;;;;;;5053365;28;20245;-61
2023/03/09 10:15:04;;;;;;;11.20;7.47;;;2.00;99.90;;;;;;5056902;28;20240;-61
2023/03/09 10:17:57;;;;;;;12.20;7.87;;;1.90;99.90;;;;;;5056815;28;20723;-61
2023/03/09 10:20:50;;;;;;;11.40;7.40;;;2.00;99.90;;;;;;5054428;28;20235;-62
2023/03/09 10:23:42;;;;;;;11.83;7.50;;;1.70;99.90;;;;;;5060748;28;20226;-61
2023/03/09 10:26:39;;;;;;;11.77;7.40;;;1.70;99.90;;;;;;5055149;28;20535;-62
2023/03/09 10:29:40;;;;;;;14.93;8.70;;;1.60;99.90;;;;;;5055643;28;20217;-61
2023/03/09 10:32:38;;;;;;;14.73;8.00;;;1.80;99.90;;;;;;5062648;28;20333;-61
2023/03/09 10:35:33;;;;;;;10.47;6.97;;;2.00;99.90;;;;;;5044437;28;20229;-61
2023/03/09 10:38:23;;;;;;;10.90;7.30;;;1.90;99.90;;;;;;5063687;28;20233;-62
2023/03/09 10:41:17;;;;;;;11.00;6.87;;;1.90;99.90;;;;;;5057610;28;20409;-61
2023/03/09 10:44:05;;;;;;;9.27;6.70;;;2.10;99.90;;;;;;5062953;28;20221;-61
2023/03/09 10:46:58;;;;;;;11.33;6.57;;;2.10;99.90;;;;;;5060392;28;20324;-60
2023/03/09 10:50:13;;;;;;;10.60;6.80;;;2.10;99.90;;;;;;5066266;28;20838;-61
2023/03/09 10:53:24;;;;;;;10.10;6.70;;;2.10;99.90;;;;;;5058254;28;20678;-63
2023/03/09 10:56:20;;;;;;;9.50;6.37;;;2.20;99.90;;;;;;5059584;28;20241;-61
2023/03/09 10:59:14;;;;;;;11.07;6.63;;;2.40;99.90;;;;;;5058054;28;20223;-62
2023/03/09 11:02:29;;;;;;;10.53;6.43;;;2.30;99.90;;;;;;5039709;28;20319;-61
2023/03/09 11:05:21;;;;;;;8.27;5.77;;;2.40;99.90;;;;;;5059775;28;20233;-60
2023/03/09 11:08:24;;;;;;;10.73;6.23;;;2.10;99.90;;;;;;5047874;28;20711;-60
2023/03/09 11:11:18;;;;;;;10.03;5.70;;;2.30;99.90;;;;;;5062234;28;20422;-60
2023/03/09 11:14:23;;;;;;;11.87;6.00;;;2.30;99.90;;;;;;5061837;28;20253;-61
2023/03/09 11:17:37;;;;;;;10.13;6.00;;;2.50;99.90;;;;;;5060198;28;20228;-60
2023/03/09 11:20:32;;;;;;;12.07;5.93;;;2.30;99.90;;;;;;5057979;28;20231;-61
2023/03/09 11:23:27;;;;;;;8.67;5.47;;;2.70;99.90;;;;;;5059531;28;20643;-63
2023/03/09 11:26:25;;;;;;;8.77;5.47;;;2.80;99.90;;;;;;5060147;28;20253;-63
2023/03/09 11:29:22;;;;;;;10.03;5.43;;;2.50;99.90;;;;;;5053212;28;20238;-61
2023/03/09 11:32:13;;;;;;;9.17;5.63;;;2.40;99.90;;;;;;5058325;28;20231;-62
2023/03/09 11:35:04;;;;;;;8.63;5.40;;;2.30;99.90;;;;;;5061908;28;20749;-62
2023/03/09 11:37:57;;;;;;;9.83;5.87;;;2.30;99.90;;;;;;5046766;28;20235;-62
2023/03/09 11:40:49;;;;;;;8.17;5.70;;;2.20;99.90;;;;;;5044469;28;20224;-61
2023/03/09 11:43:41;;;;;;;10.30;6.23;;;2.20;99.90;;;;;;5042810;28;20237;-61
2023/03/09 11:46:30;;;;;;;10.07;6.30;;;2.20;99.90;;;;;;5057296;28;20223;-64
2023/03/09 11:49:25;;;;;;;8.63;6.20;;;2.10;99.90;;;;;;5057414;28;20228;-67
2023/03/09 11:52:19;;;;;;;11.50;7.40;;;2.40;99.90;;;;;;5055740;28;20257;-66
2023/03/09 11:55:15;;;;;;;10.83;7.20;;;2.40;99.90;;;;;;5052829;28;20396;-67
2023/03/09 11:58:09;;;;;;;12.80;6.47;;;2.50;99.90;;;;;;5056043;28;20265;-67
2023/03/09 12:01:08;;;;;;;10.70;6.03;;;2.40;99.90;;;;;;5056318;28;20222;-66
2023/03/09 12:04:01;;;;;;;9.67;6.60;;;2.20;99.90;;;;;;5045203;28;20246;-66
2023/03/09 12:06:56;;;;;;;11.67;6.90;;;2.40;99.90;;;;;;5041754;28;20584;-66
2023/03/09 12:09:54;;;;;;;11.93;6.43;;;2.20;99.90;;;;;;5038459;28;20232;-66
2023/03/09 12:12:47;;;;;;;9.80;6.60;;;2.30;99.90;;;;;;5057298;28;20225;-66
2023/03/09 12:15:40;;;;;;;9.97;6.63;;;2.40;99.90;;;;;;5057092;28;20218;-66
2023/03/09 12:18:33;;;;;;;11.37;7.07;;;2.50;99.90;;;;;;5049901;28;20242;-66
2023/03/09 12:21:29;;;;;;;13.13;7.03;;;2.20;99.90;;;;;;5041924;28;20982;-66
2023/03/09 12:24:31;;;;;;;12.10;7.43;;;2.20;99.90;;;;;;5052565;28;20226;-67
2023/03/09 12:27:23;;;;;;;12.50;8.53;;;2.00;99.90;;;;;;5056422;28;20294;-67
2023/03/09 12:30:23;;;;;;;14.13;8.33;;;2.00;99.90;;;;;;5059581;28;20721;-67
2023/03/09 12:33:12;;;;;;;13.57;8.97;;;1.80;99.90;;;;;;5059334;28;20247;-66
2023/03/09 12:36:01;;;;;;;15.03;9.30;;;2.00;99.90;;;;;;5062011;28;20234;-66
2023/03/09 12:39:39;;;;;;;13.13;7.87;;;1.90;99.90;;;;;;5064289;28;20267;-67
2023/03/09 12:42:38;;;;;;;16.13;7.20;;;1.70;99.90;;;;;;5058356;28;20227;-67
2023/03/09 12:45:30;;;;;;;14.40;7.63;;;1.70;99.90;;;;;;5058864;28;20275;-67
2023/03/09 12:48:24;;;;;;;14.03;7.70;;;1.70;99.90;;;;;;5058733;28;20238;-64
2023/03/09 12:51:19;;;;;;;12.90;8.40;;;1.80;99.90;;;;;;5059798;28;20356;-67
2023/03/09 12:54:21;;;;;;;13.03;8.10;;;1.80;99.90;;;;;;5056820;28;20226;-65
2023/03/09 12:57:19;;;;;;;12.30;8.37;;;1.90;99.90;;;;;;5058470;28;20328;-66
2023/03/09 13:00:31;;;;;;;12.37;8.60;;;2.10;99.90;;;;;;5058610;28;20237;-65
2023/03/09 13:03:23;;;;;;;14.27;8.80;;;1.70;99.90;;;;;;5054883;28;20315;-66
2023/03/09 13:06:24;;;;;;;15.80;8.67;;;1.60;99.90;;;;;;5051615;28;20251;-68
2023/03/09 13:09:23;;;;;;;11.57;8.20;;;1.60;99.90;;;;;;5058837;28;20236;-66
2023/03/09 13:12:19;;;;;;;12.27;8.27;;;1.70;99.90;;;;;;5056694;28;20333;-66
2023/03/09 13:15:27;;;;;;;15.30;8.57;;;1.70;99.90;;;;;;5054955;28;20226;-67
2023/03/09 13:18:27;;;;;;;13.30;7.93;;;1.70;99.90;;;;;;5054269;28;20239;-67
2023/03/09 13:21:40;;;;;;;16.50;7.80;;;1.70;99.90;;;;;;5052263;28;20229;-66
2023/03/09 13:24:37;;;;;;;16.63;8.30;;;1.60;99.90;;;;;;5056660;28;20518;-66
2023/03/09 13:27:30;;;;;;;17.50;8.77;;;1.80;99.90;;;;;;5045775;28;20240;-66
2023/03/09 13:30:24;;;;;;;10.97;7.77;;;2.00;99.90;;;;;;5056404;28;20222;-67
2023/03/09 13:33:18;;;;;;;11.40;7.07;;;1.90;99.90;;;;;;5041192;28;20360;-67
2023/03/09 13:36:15;;;;;;;11.40;6.27;;;1.70;99.90;;;;;;5055543;28;20221;-67
2023/03/09 13:39:09;;;;;;;11.77;6.27;;;1.60;99.90;;;;;;5053224;28;20251;-66
2023/03/09 13:42:02;;;;;;;9.03;6.07;;;1.40;99.90;;;;;;5052087;28;20355;-64
2023/03/09 13:44:57;;;;;;;10.00;6.50;;;1.50;99.90;;;;;;5039822;28;20716;-65
2023/03/09 13:47:46;;;;;;;10.63;5.87;;;1.40;99.90;;;;;;5039753;28;20229;-65
2023/03/09 13:50:36;;;;;;;11.27;6.23;;;1.20;99.90;;;;;;5058039;28;20216;-60
2023/03/09 13:53:26;;;;;;;10.93;5.90;;;1.30;99.90;;;;;;5056666;28;20825;-61
2023/03/09 13:56:15;;;;;;;12.63;7.37;;;1.30;99.90;;;;;;5054323;28;20262;-66
2023/03/09 13:59:14;;;;;;;10.23;6.80;;;1.40;99.90;;;;;;5038191;28;20286;-68
2023/03/09 14:02:05;;;;;;;9.67;6.27;;;1.60;99.90;;;;;;5056535;28;20222;-67
2023/03/09 14:05:05;;;;;;;11.80;6.43;;;1.30;99.90;;;;;;5054344;28;20807;-67
2023/03/09 14:08:20;;;;;;;11.20;6.40;;;1.20;99.90;;;;;;5052684;28;20227;-66
2023/03/09 14:11:15;;;;;;;10.57;5.77;;;1.30;99.90;;;;;;5054495;28;20227;-66
2023/03/09 14:14:08;;;;;;;12.97;5.87;;;1.00;99.90;;;;;;5043958;28;20221;-68
2023/03/09 14:16:57;;;;;;;11.77;6.73;;;1.00;99.90;;;;;;5042286;28;20229;-67
2023/03/09 14:19:52;;;;;;;12.67;6.90;;;1.10;99.90;;;;;;5052868;28;20562;-67
2023/03/09 14:22:41;;;;;;;13.70;6.37;;;1.20;99.90;;;;;;5058777;28;20212;-66
2023/03/09 14:25:33;;;;;;;10.23;6.20;;;1.20;99.90;;;;;;5040650;28;20209;-67
2023/03/09 14:28:26;;;;;;;8.90;5.73;;;1.20;99.90;;;;;;5049247;28;20532;-68
2023/03/09 14:31:18;;;;;;;10.03;5.80;;;1.30;99.90;;;;;;5059688;28;20231;-67
2023/03/09 14:34:28;;;;;;;8.53;5.37;;;1.30;99.90;;;;;;5058139;28;20231;-67
2023/03/09 14:37:31;;;;;;;9.07;5.13;;;1.30;99.90;;;;;;5056359;28;20233;-68
2023/03/09 14:40:26;;;;;;;7.73;4.53;;;1.50;99.90;;;;;;5045073;28;20222;-67
2023/03/09 14:43:21;;;;;;;5.90;4.17;;;1.30;99.90;;;;;;5056694;28;20286;-68
2023/03/09 14:46:16;;;;;;;7.47;4.33;;;1.50;99.90;;;;;;5056606;28;20265;-66
2023/03/09 14:49:11;;;;;;;8.07;4.47;;;1.40;99.90;;;;;;5052449;28;20731;-68
2023/03/09 14:52:00;;;;;;;6.40;4.30;;;1.40;99.90;;;;;;5051937;28;20216;-68